Time;durP1;ratioP1;P1;durP2;ratioP2;P2;SDS_P1;SDS_P2;PMS_P1;PMS_P2;Temp;Humidity;BMP_temperature;BMP_pressure;BME280_temperature;BME280_humidity;BME280_pressure;Samples;Min_cycle;Max_cycle;Signal;HPM_P1;HPM_P2
2022/09/21 00:01:09;;;;;;;1.70;1.60;;;;;;;9.81;79.47;96940.69;5042669;28;20139;-76
2022/09/21 00:03:37;;;;;;;1.95;1.85;;;;;;;10.43;79.42;97028.78;5044120;28;20060;-75
2022/09/21 00:06:06;;;;;;;2.13;1.88;;;;;;;10.07;80.31;96979.50;5043841;28;20566;-75
2022/09/21 00:08:33;;;;;;;2.25;1.63;;;;;;;10.39;80.40;97029.91;5043994;28;20527;-77
2022/09/21 00:10:59;;;;;;;1.65;1.55;;;;;;;9.81;80.33;96951.75;5043737;28;20519;-75
2022/09/21 00:13:27;;;;;;;1.65;1.55;;;;;;;10.01;80.02;96980.94;5044374;28;20053;-77
2022/09/21 00:15:56;;;;;;;1.92;1.83;;;;;;;9.80;81.83;96977.00;5042797;28;20505;-73
2022/09/21 00:18:23;;;;;;;2.22;2.03;;;;;;;10.03;83.34;97025.66;5044255;28;20068;-75
2022/09/21 00:20:51;;;;;;;2.35;2.15;;;;;;;10.01;82.98;97000.31;5042394;28;20080;-74
2022/09/21 00:23:19;;;;;;;2.53;1.92;;;;;;;9.79;81.90;96954.06;5044299;28;20080;-76
2022/09/21 00:25:46;;;;;;;3.70;1.98;;;;;;;9.98;81.84;97012.13;5042529;28;20084;-77
2022/09/21 00:28:13;;;;;;;2.28;2.10;;;;;;;9.48;81.87;96926.63;5045166;28;20132;-76
2022/09/21 00:30:40;;;;;;;4.03;2.17;;;;;;;9.34;82.13;96920.81;5042781;28;20511;-75
2022/09/21 00:33:07;;;;;;;2.53;2.08;;;;;;;9.99;81.95;97026.78;5043532;28;20095;-74
2022/09/21 00:35:33;;;;;;;2.28;2.08;;;;;;;9.29;82.79;96923.06;5043662;28;20135;-75
2022/09/21 00:38:01;;;;;;;2.25;2.05;;;;;;;9.88;83.47;97028.53;5043970;28;20660;-75
2022/09/21 00:40:30;;;;;;;3.25;2.20;;;;;;;9.81;82.63;97023.66;5042336;28;20600;-76
2022/09/21 00:43:14;;;;;;;1.98;1.88;;;;;;;9.49;81.64;96986.28;5044127;28;20060;-75
2022/09/21 00:45:43;;;;;;;2.38;2.17;;;;;;;9.63;81.61;97022.50;5044714;28;20525;-76
2022/09/21 00:48:09;;;;;;;2.97;2.45;;;;;;;9.55;81.95;97014.44;5047044;28;20045;-76
2022/09/21 00:50:41;;;;;;;3.45;2.30;;;;;;;7.92;82.62;96754.50;5047111;28;20127;-75
2022/09/21 00:53:08;;;;;;;1.98;1.88;;;;;;;9.41;82.64;97003.88;5046300;28;20099;-75
2022/09/21 00:55:42;;;;;;;2.15;1.95;;;;;;;9.49;82.41;97027.75;5048138;28;20149;-77
2022/09/21 00:58:15;;;;;;;2.17;2.08;;;;;;;9.46;84.46;97022.94;5047611;28;20938;-76
2022/09/21 01:00:42;;;;;;;2.35;2.15;;;;;;;9.08;84.49;96970.41;5045764;28;20139;-77
2022/09/21 01:03:12;;;;;;;3.35;2.20;;;;;;;9.04;85.51;96986.13;5047317;28;20102;-76
2022/09/21 01:05:38;;;;;;;2.75;2.05;;;;;;;8.86;87.43;96977.44;5046766;28;20351;-76
2022/09/21 01:08:08;;;;;;;2.35;2.15;;;;;;;8.66;88.13;96973.03;5046925;28;20138;-76
2022/09/21 01:10:54;;;;;;;2.30;2.10;;;;;;;9.06;87.51;97014.97;5046755;28;20541;-76
2022/09/21 01:13:47;;;;;;;3.92;2.20;;;;;;;7.89;88.14;96917.91;5047405;28;20064;-76
2022/09/21 01:16:46;;;;;;;2.50;2.30;;;;;;;8.78;89.05;97019.88;5045919;28;20151;-76
2022/09/21 01:19:31;;;;;;;2.03;1.88;;;;;;;8.87;87.16;97016.88;5034293;28;20088;-74
2022/09/21 01:22:42;;;;;;;3.45;2.28;;;;;;;8.12;87.38;96924.38;5046990;28;20139;-76
2022/09/21 01:25:31;;;;;;;4.15;2.33;;;;;;;8.79;86.99;97018.69;5046876;28;20092;-75
2022/09/21 01:28:22;;;;;;;2.67;2.45;;;;;;;8.79;87.01;97009.59;5047392;28;20122;-76
2022/09/21 01:30:52;;;;;;;2.65;2.45;;;;;;;8.82;87.70;97014.44;5046891;28;20555;-76
2022/09/21 01:33:38;;;;;;;2.40;2.20;;;;;;;8.89;87.83;97014.56;5047005;28;20053;-76
2022/09/21 01:36:09;;;;;;;2.13;2.00;;;;;;;8.90;86.56;97016.97;5045437;28;20136;-76
2022/09/21 01:38:42;;;;;;;2.10;2.00;;;;;;;8.82;86.62;97014.44;5045454;28;20084;-74
2022/09/21 01:41:13;;;;;;;3.58;2.55;;;;;;;6.16;87.37;96579.47;5046826;28;20053;-76
2022/09/21 01:43:46;;;;;;;2.83;2.63;;;;;;;8.48;87.24;96971.00;5045316;28;20088;-74
2022/09/21 01:46:18;;;;;;;2.17;1.98;;;;;;;8.90;86.35;97011.47;5046317;28;20212;-76
2022/09/21 01:48:49;;;;;;;3.50;1.88;;;;;;;7.91;86.13;96885.25;5044830;28;20494;-76
2022/09/21 01:51:18;;;;;;;2.40;2.20;;;;;;;8.26;87.19;96930.28;5046187;28;20075;-74
2022/09/21 01:53:51;;;;;;;2.55;2.30;;;;;;;8.45;87.04;96949.66;5044627;28;20613;-75
2022/09/21 01:56:25;;;;;;;2.50;2.30;;;;;;;8.51;86.60;96986.84;5045765;28;20472;-76
2022/09/21 01:59:13;;;;;;;3.92;2.75;;;;;;;8.73;84.66;97013.81;5044535;28;20497;-75
2022/09/21 02:01:44;;;;;;;4.10;2.90;;;;;;;8.66;84.18;97016.41;5044784;28;20132;-75
2022/09/21 02:04:12;;;;;;;3.42;2.50;;;;;;;8.52;85.11;96971.91;5046066;28;20048;-75
2022/09/21 02:06:43;;;;;;;2.90;2.60;;;;;;;8.65;85.30;97009.28;5044627;28;20139;-76
2022/09/21 02:09:10;;;;;;;4.65;2.58;;;;;;;8.07;85.53;96924.66;5045628;28;20603;-76
2022/09/21 02:11:41;;;;;;;4.35;2.40;;;;;;;8.38;86.48;96957.75;5044428;28;20086;-76
2022/09/21 02:14:11;;;;;;;2.65;2.45;;;;;;;8.59;86.76;96999.66;5044411;28;20079;-75
2022/09/21 02:16:41;;;;;;;2.83;2.33;;;;;;;8.47;87.72;97002.53;5045712;28;20479;-76
2022/09/21 02:19:26;;;;;;;2.20;2.10;;;;;;;8.55;86.38;97009.84;5045883;28;20064;-73
2022/09/21 02:22:20;;;;;;;1.98;1.85;;;;;;;8.39;85.95;97017.31;5044549;28;20111;-75
2022/09/21 02:24:53;;;;;;;;;;;;;;;8.32;86.54;97017.13;5044467;28;20130;-75
2022/09/21 02:27:39;;;;;;;2.42;2.22;;;;;;;8.21;86.94;97013.28;5046115;28;19931;-74
2022/09/21 02:30:13;;;;;;;2.88;2.53;;;;;;;8.15;87.97;97061.59;5045332;28;20052;-76
2022/09/21 02:33:05;;;;;;;3.95;2.72;;;;;;;7.97;89.45;97028.03;5046030;28;20136;-74
2022/09/21 02:35:42;;;;;;;5.03;3.05;;;;;;;7.89;90.04;97025.44;5044064;28;20140;-75
2022/09/21 02:38:25;;;;;;;3.05;2.85;;;;;;;7.86;91.96;97021.44;5046028;28;20482;-75
2022/09/21 02:41:13;;;;;;;3.03;2.75;;;;;;;7.02;91.24;96854.59;5045044;28;20088;-75
2022/09/21 02:43:49;;;;;;;3.17;2.88;;;;;;;8.03;90.69;97015.56;5045674;28;20084;-75
2022/09/21 02:46:40;;;;;;;3.33;3.03;;;;;;;8.16;91.12;97013.53;5044801;28;20103;-73
2022/09/21 02:49:14;;;;;;;7.35;2.80;;;;;;;8.23;90.20;97008.25;5043802;28;20053;-77
2022/09/21 02:51:51;;;;;;;;;;;;;;;8.27;88.54;97014.63;5045344;28;20133;-74
2022/09/21 02:54:22;;;;;;;3.92;2.90;;;;;;;7.69;88.07;96928.84;5043671;28;19993;-76
2022/09/21 02:56:51;;;;;;;3.83;2.40;;;;;;;7.76;88.04;96921.91;5043281;28;20088;-75
2022/09/21 02:59:18;;;;;;;3.70;2.63;;;;;;;8.18;88.53;96978.13;5043242;28;20053;-74
2022/09/21 03:01:45;;;;;;;4.47;2.80;;;;;;;8.51;89.04;97003.41;5044310;28;20629;-75
2022/09/21 03:04:12;;;;;;;2.67;2.47;;;;;;;5.95;88.67;96658.59;5045044;28;20057;-76
2022/09/21 03:06:40;;;;;;;2.35;2.15;;;;;;;8.01;87.83;96923.31;5044438;28;20133;-76
2022/09/21 03:09:07;;;;;;;3.15;2.42;;;;;;;8.42;86.88;97011.09;5043868;28;20521;-75
2022/09/21 03:11:34;;;;;;;3.17;2.80;;;;;;;8.50;87.95;96999.06;5042990;28;20176;-77
2022/09/21 03:14:07;;;;;;;2.92;2.65;;;;;;;8.55;87.47;97010.63;5044665;28;20531;-73
2022/09/21 03:16:35;;;;;;;3.10;2.70;;;;;;;8.63;87.04;97011.63;5044203;28;20056;-76
2022/09/21 03:19:02;;;;;;;2.97;2.67;;;;;;;7.25;85.83;96789.53;5043081;28;20088;-74
2022/09/21 03:21:28;;;;;;;3.25;2.67;;;;;;;7.97;85.99;96922.41;5044443;28;20153;-73
2022/09/21 03:23:55;;;;;;;4.18;2.67;;;;;;;7.51;84.61;96839.38;5044711;28;20486;-75
2022/09/21 03:26:22;;;;;;;3.38;2.75;;;;;;;8.56;85.40;97041.78;5044228;28;20495;-74
2022/09/21 03:28:49;;;;;;;5.60;2.45;;;;;;;7.63;85.98;96858.56;5044984;28;20522;-76
2022/09/21 03:31:16;;;;;;;3.65;2.63;;;;;;;8.15;86.80;96945.72;5044089;28;20114;-74
2022/09/21 03:33:43;;;;;;;2.78;2.47;;;;;;;8.03;86.04;96912.75;5044523;28;20583;-76
2022/09/21 03:36:10;;;;;;;3.28;2.70;;;;;;;7.63;85.60;96844.78;5043901;28;20502;-76
2022/09/21 03:38:38;;;;;;;5.97;2.70;;;;;;;8.56;85.82;97016.94;5044703;28;20187;-75
2022/09/21 03:41:05;;;;;;;3.45;2.83;;;;;;;8.58;86.17;97025.69;5044034;28;20599;-74
2022/09/21 03:43:31;;;;;;;3.00;2.50;;;;;;;8.62;85.86;97027.38;5043255;28;20077;-72
2022/09/21 03:45:58;;;;;;;2.45;2.03;;;;;;;6.52;86.49;96694.78;5044075;28;20498;-76
2022/09/21 03:48:25;;;;;;;7.60;3.38;;;;;;;7.51;88.11;96948.78;5041786;28;20265;-75
2022/09/21 03:50:51;;;;;;;12.30;3.80;;;;;;;8.36;89.96;97029.84;5051603;28;20079;-72
2022/09/21 03:53:18;;;;;;;2.90;2.25;;;;;;;7.65;90.00;96905.88;5044350;28;20130;-71
2022/09/21 03:55:45;;;;;;;2.70;2.50;;;;;;;8.41;89.95;97032.34;5042561;28;20515;-73
2022/09/21 03:58:11;;;;;;;3.00;2.70;;;;;;;8.35;89.98;97038.50;5044511;28;20140;-73
2022/09/21 04:00:38;;;;;;;2.95;2.40;;;;;;;8.42;90.06;97039.50;5044048;28;20131;-73
2022/09/21 04:03:05;;;;;;;6.43;2.90;;;;;;;8.57;89.49;97035.09;5042711;28;20053;-72
2022/09/21 04:05:31;;;;;;;4.22;3.28;;;;;;;8.63;89.10;97028.19;5043900;28;20089;-72
2022/09/21 04:08:00;;;;;;;3.40;3.10;;;;;;;8.59;88.49;97022.56;5042459;28;20101;-72
2022/09/21 04:10:32;;;;;;;4.50;3.17;;;;;;;8.09;88.25;96988.53;5044168;28;20056;-72
2022/09/21 04:13:00;;;;;;;5.82;3.58;;;;;;;8.61;87.85;97030.50;5042937;28;20071;-72
2022/09/21 04:15:28;;;;;;;5.97;3.33;;;;;;;8.63;87.48;97039.22;5042713;28;20049;-71
2022/09/21 04:17:55;;;;;;;4.93;3.38;;;;;;;8.26;86.53;96990.97;5042550;28;20057;-72
2022/09/21 04:20:22;;;;;;;7.28;2.88;;;;;;;6.74;85.75;96738.22;5047626;28;20049;-71
2022/09/21 04:22:50;;;;;;;3.92;2.90;;;;;;;8.42;85.45;96994.53;5048014;28;20052;-72
2022/09/21 04:25:17;;;;;;;4.35;2.78;;;;;;;8.34;85.05;96951.34;5047316;28;20566;-72
2022/09/21 04:27:43;;;;;;;5.13;2.83;;;;;;;7.89;84.22;96888.34;5047893;28;20048;-72
2022/09/21 04:30:13;;;;;;;3.38;2.60;;;;;;;8.81;84.96;97030.19;5047493;28;20118;-72
2022/09/21 04:32:39;;;;;;;3.10;2.80;;;;;;;7.92;85.27;96892.38;5047700;28;20135;-72
2022/09/21 04:35:06;;;;;;;3.35;2.63;;;;;;;8.70;85.60;97000.72;5047520;28;20060;-72
2022/09/21 04:37:33;;;;;;;3.65;2.80;;;;;;;8.82;83.96;97017.19;5047412;28;20136;-71
2022/09/21 04:40:00;;;;;;;5.00;3.50;;;;;;;8.41;84.04;96943.25;5047516;28;20139;-72
2022/09/21 04:42:27;;;;;;;7.47;2.80;;;;;;;8.89;83.94;97009.06;5047196;28;20057;-72
2022/09/21 04:44:54;;;;;;;4.00;2.40;;;;;;;8.52;82.50;96938.78;5047799;28;20084;-71
2022/09/21 04:47:24;;;;;;;2.72;2.28;;;;;;;9.18;84.26;97038.94;5047330;28;20087;-72
2022/09/21 04:49:51;;;;;;;4.72;3.30;;;;;;;9.23;83.07;97044.19;5046060;28;20056;-71
2022/09/21 04:52:18;;;;;;;5.30;3.55;;;;;;;9.15;82.78;97050.72;5046902;28;20087;-70
2022/09/21 04:54:46;;;;;;;4.22;3.00;;;;;;;9.14;83.43;97043.56;5047022;28;20053;-70
2022/09/21 04:57:13;;;;;;;10.50;3.53;;;;;;;8.33;84.39;96930.44;5046874;28;20573;-71
2022/09/21 04:59:40;;;;;;;4.82;3.78;;;;;;;8.79;84.62;97010.41;5047152;28;20053;-70
2022/09/21 05:02:07;;;;;;;6.10;4.40;;;;;;;9.28;83.91;97051.38;5046916;28;20476;-70
2022/09/21 05:04:33;;;;;;;6.72;3.15;;;;;;;9.29;83.67;97034.44;5045443;28;20107;-70
2022/09/21 05:07:00;;;;;;;8.60;3.45;;;;;;;8.38;85.36;96988.09;5045034;28;20052;-71
2022/09/21 05:12:19;;;;;;;12.30;4.05;;;;;;;8.96;89.07;97053.44;5030657;28;20095;-70
2022/09/21 05:14:46;;;;;;;7.65;3.25;;;;;;;9.23;88.40;97064.31;5047040;28;20162;-70
2022/09/21 05:17:12;;;;;;;7.88;3.10;;;;;;;9.26;86.45;97051.75;5046883;28;20617;-69
2022/09/21 05:19:39;;;;;;;3.58;2.75;;;;;;;9.30;85.90;97019.44;5045339;28;20622;-70
2022/09/21 05:22:06;;;;;;;9.15;2.53;;;;;;;9.58;85.80;97039.38;5046555;28;20107;-72
2022/09/21 05:24:33;;;;;;;3.80;2.55;;;;;;;8.24;84.49;96794.63;5045114;28;20102;-71
2022/09/21 05:27:00;;;;;;;2.58;2.38;;;;;;;9.96;83.30;97057.91;5046143;28;20222;-71
2022/09/21 05:29:27;;;;;;;4.00;2.30;;;;;;;9.58;82.25;96956.44;5046466;28;20049;-70
2022/09/21 05:32:29;;;;;;;4.22;2.45;;;;;;;10.21;81.51;97037.88;5045838;28;20053;-71
2022/09/21 05:35:14;;;;;;;5.78;2.58;;;;;;;10.46;79.37;97043.88;5044927;28;20139;-71
2022/09/21 05:38:07;;;;;;;4.05;2.78;;;;;;;10.32;77.96;96993.78;5043177;28;20790;-68
2022/09/21 05:40:34;;;;;;;5.25;3.25;;;;;;;9.61;78.27;96858.91;5042550;28;20049;-65
2022/09/21 05:43:01;;;;;;;4.47;3.17;;;;;;;10.73;77.71;96997.63;5045281;28;20049;-66
2022/09/21 05:45:28;;;;;;;7.28;3.05;;;;;;;9.97;76.00;96877.72;5044957;28;20491;-69
2022/09/21 05:48:07;;;;;;;4.25;3.47;;;;;;;11.14;75.39;97024.38;5056866;28;20084;-64
2022/09/21 05:50:44;;;;;;;7.68;3.90;;;;;;;11.57;73.79;97032.09;5065556;28;20098;-68
2022/09/21 05:53:27;;;;;;;7.53;4.45;;;;;;;11.12;72.42;96915.81;5064636;28;20079;-70
2022/09/21 05:55:55;;;;;;;5.68;3.50;;;;;;;11.70;72.26;97055.66;5042668;28;20135;-68
2022/09/21 05:58:36;;;;;;;10.32;3.60;;;;;;;12.03;71.20;97027.91;5046307;28;20148;-67
2022/09/21 06:01:27;;;;;;;10.02;3.00;;;;;;;12.31;70.04;97019.91;5025763;28;20495;-67
2022/09/21 06:03:55;;;;;;;13.25;6.57;;;;;;;12.44;69.68;97021.19;5025184;28;20516;-68
2022/09/21 06:06:22;;;;;;;6.60;3.80;;;;;;;12.69;68.10;97021.41;5045716;28;20040;-70
2022/09/21 06:08:49;;;;;;;8.27;3.75;;;;;;;12.90;65.64;97016.81;5043295;28;20140;-64
2022/09/21 06:11:15;;;;;;;8.80;3.70;;;;;;;12.51;65.94;96893.47;5045247;28;20136;-63
2022/09/21 06:13:42;;;;;;;5.88;3.53;;;;;;;13.34;64.81;96970.25;5055084;28;20117;-68
2022/09/21 06:16:09;;;;;;;3.20;2.90;;;;;;;13.96;63.47;97023.00;5062938;28;20045;-69
2022/09/21 06:18:38;;;;;;;3.75;2.38;;;;;;;13.89;59.96;96995.13;5065844;28;20146;-69
2022/09/21 06:21:05;;;;;;;2.67;2.25;;;;;;;14.03;58.67;96984.84;5063154;28;20145;-68
2022/09/21 06:23:32;;;;;;;6.85;3.00;;;;;;;14.62;58.22;97016.81;5051851;28;20487;-71
2022/09/21 06:25:59;;;;;;;6.68;2.90;;;;;;;13.94;57.10;96875.00;5044428;28;20080;-67
2022/09/21 06:28:26;;;;;;;6.78;3.50;;;;;;;13.14;56.81;96732.56;5045080;28;20052;-70
2022/09/21 06:30:54;;;;;;;5.15;3.53;;;;;;;15.15;56.76;97012.00;5042910;28;20983;-71
2022/09/21 06:33:22;;;;;;;4.68;3.28;;;;;;;15.10;55.49;97017.97;5045321;28;20059;-64
2022/09/21 06:35:57;;;;;;;5.53;3.38;;;;;;;13.43;56.43;96723.06;5048203;28;20074;-65
2022/09/21 06:38:25;;;;;;;3.83;2.88;;;;;;;14.99;56.83;97020.00;5063023;28;20049;-66
2022/09/21 06:40:52;;;;;;;10.88;3.20;;;;;;;13.55;57.41;96742.16;5065129;28;20128;-66
2022/09/21 06:43:19;;;;;;;10.18;3.55;;;;;;;14.90;57.08;96966.59;5062843;28;20156;-70
2022/09/21 06:45:57;;;;;;;2.67;2.47;;;;;;;15.43;55.34;97011.19;5064593;28;20507;-61
2022/09/21 06:48:25;;;;;;;2.20;2.00;;;;;;;15.64;55.61;97006.34;5058535;28;20049;-62
2022/09/21 06:50:59;;;;;;;2.30;2.10;;;;;;;15.83;53.73;97008.66;5064269;28;20116;-64
2022/09/21 06:53:28;;;;;;;3.75;2.70;;;;;;;15.65;53.39;96957.66;5050171;28;20080;-65
2022/09/21 06:56:08;;;;;;;63.25;7.53;;;;;;;16.35;50.84;97007.59;5043946;28;20049;-69
2022/09/21 06:58:36;;;;;;;3.50;1.92;;;;;;;16.49;49.63;96973.16;5061908;28;20075;-67
2022/09/21 07:01:08;;;;;;;2.55;2.35;;;;;;;16.51;48.95;96937.22;5062871;28;20048;-67
2022/09/21 07:03:36;;;;;;;2.97;2.10;;;;;;;17.28;48.25;97002.88;5047966;28;20419;-64
2022/09/21 07:06:04;;;;;;;2.55;2.35;;;;;;;17.00;47.71;96924.78;5043730;28;20224;-66
2022/09/21 07:08:31;;;;;;;2.80;2.60;;;;;;;16.69;47.15;96959.44;5043788;28;20530;-70
2022/09/21 07:11:18;;;;;;;5.20;2.22;;;;;;;16.54;46.52;96937.19;5043772;28;20052;-62
2022/09/21 07:13:44;;;;;;;2.15;2.05;;;;;;;16.25;46.47;96849.13;5042943;28;20077;-68
2022/09/21 07:16:11;;;;;;;4.10;3.28;;;;;;;17.03;47.06;97005.09;5044764;28;20162;-69
2022/09/21 07:18:39;;;;;;;3.08;2.85;;;;;;;14.60;47.53;96665.16;5042998;28;20075;-69
2022/09/21 07:21:10;;;;;;;2.95;2.67;;;;;;;16.06;47.26;96899.97;5043781;28;20057;-68
2022/09/21 07:23:37;;;;;;;3.90;2.30;;;;;;;17.18;46.22;97006.59;5059967;28;20076;-64
2022/09/21 07:26:07;;;;;;;2.13;2.03;;;;;;;17.21;45.99;97002.94;5043370;28;20072;-66
2022/09/21 07:28:34;;;;;;;3.45;2.60;;;;;;;17.46;45.97;96997.91;5043881;28;20485;-64
2022/09/21 07:31:14;;;;;;;2.53;2.42;;;;;;;17.83;45.62;96995.13;5035935;28;20081;-75
2022/09/21 07:33:42;;;;;;;6.03;2.60;;;;;;;17.71;45.37;96912.38;5040844;28;20102;-64
2022/09/21 07:36:11;;;;;;;3.00;2.80;;;;;;;18.05;44.44;96971.97;5047001;28;20131;-68
2022/09/21 07:38:41;;;;;;;3.22;2.40;;;;;;;18.02;44.54;96960.81;5046162;28;20060;-70
2022/09/21 07:41:11;;;;;;;2.70;2.60;;;;;;;17.63;44.11;96879.28;5038591;28;20053;-63
2022/09/21 07:43:39;;;;;;;2.80;2.60;;;;;;;18.01;43.72;96999.28;5033182;28;20049;-65
2022/09/21 07:46:10;;;;;;;6.10;2.50;;;;;;;18.37;43.07;96968.72;5043342;28;20055;-67
2022/09/21 07:48:38;;;;;;;3.17;2.60;;;;;;;18.46;42.75;96926.16;5045040;28;20055;-69
2022/09/21 07:51:08;;;;;;;6.18;2.28;;;;;;;19.02;41.69;96982.16;5045748;28;20519;-69
2022/09/21 07:53:37;;;;;;;3.63;2.40;;;;;;;18.37;42.04;96928.69;5064015;28;20143;-69
2022/09/21 07:56:06;;;;;;;3.92;2.60;;;;;;;18.90;41.37;96985.56;5056116;28;20124;-65
2022/09/21 08:01:20;;;;;;;2.38;2.28;;;;;;;17.70;41.56;96971.66;5053817;28;20650;-59
2022/09/21 08:03:49;;;;;;;2.25;2.15;;;;;;;17.97;41.27;96927.66;5058984;28;20052;-69
2022/09/21 08:06:16;;;;;;;2.75;2.47;;;;;;;18.51;40.63;96951.72;5054658;28;20480;-71
2022/09/21 08:08:43;;;;;;;2.20;2.03;;;;;;;18.91;40.80;96984.34;5042141;28;20091;-71
2022/09/21 08:11:10;;;;;;;4.35;3.95;;;;;;;18.35;40.54;96892.66;5051719;28;20518;-67
2022/09/21 08:13:37;;;;;;;2.38;2.28;;;;;;;18.47;39.47;96855.59;5067645;28;20075;-65
2022/09/21 08:16:04;;;;;;;2.83;2.72;;;;;;;19.39;39.73;96965.03;5055568;28;20146;-66
2022/09/21 08:18:31;;;;;;;2.85;2.58;;;;;;;18.57;40.19;96804.16;5045973;28;20060;-66
2022/09/21 08:20:59;;;;;;;2.55;2.38;;;;;;;19.99;39.24;96960.25;5047439;28;20053;-66
2022/09/21 08:23:29;;;;;;;2.38;2.17;;;;;;;20.15;38.53;96918.16;5047031;28;20793;-65
2022/09/21 08:26:06;;;;;;;2.67;2.58;;;;;;;20.54;37.87;96974.31;5046655;28;20076;-69
2022/09/21 08:28:35;;;;;;;2.50;2.40;;;;;;;20.23;37.74;96905.50;5047387;28;20135;-66
2022/09/21 08:31:04;;;;;;;3.17;2.63;;;;;;;20.32;37.92;96956.34;5054084;28;20525;-71
2022/09/21 08:33:31;;;;;;;2.90;2.67;;;;;;;19.22;38.23;96900.78;5049646;28;20165;-66
2022/09/21 08:35:59;;;;;;;3.08;2.70;;;;;;;19.05;38.38;96930.75;5047908;28;20099;-61
2022/09/21 08:38:30;;;;;;;2.72;2.47;;;;;;;18.88;38.93;96909.41;5065580;28;20156;-70
2022/09/21 08:41:00;;;;;;;3.13;2.92;;;;;;;18.64;38.76;96888.19;5066845;28;20139;-67
2022/09/21 08:43:39;;;;;;;2.38;2.28;;;;;;;19.05;38.48;96953.22;5057415;28;20084;-66
2022/09/21 08:46:12;;;;;;;3.08;2.20;;;;;;;18.69;38.66;96923.38;5045563;28;20045;-69
2022/09/21 08:48:44;;;;;;;2.72;2.30;;;;;;;19.01;38.44;96955.31;5042193;28;20046;-67
2022/09/21 08:51:20;;;;;;;2.55;2.40;;;;;;;18.78;37.93;96901.97;5046554;28;20049;-69
2022/09/21 08:53:51;;;;;;;2.70;2.60;;;;;;;19.09;37.68;96909.03;5046778;28;20467;-68
2022/09/21 08:56:20;;;;;;;2.80;2.60;;;;;;;18.65;38.46;96872.91;5046164;28;20049;-64
2022/09/21 08:58:47;;;;;;;2.45;2.35;;;;;;;18.02;39.60;96801.03;5046661;28;20128;-65
2022/09/21 09:01:32;;;;;;;2.78;2.58;;;;;;;19.28;38.07;96904.69;5046183;28;20110;-73
2022/09/21 09:04:25;;;;;;;2.97;2.78;;;;;;;19.34;37.06;96813.88;5063925;28;20063;-66
2022/09/21 09:06:54;;;;;;;2.83;2.63;;;;;;;20.01;37.58;96929.69;5060601;28;20084;-73
2022/09/21 09:09:48;;;;;;;2.85;2.65;;;;;;;20.28;36.99;96933.13;5046464;28;20602;-70
2022/09/21 09:12:27;;;;;;;2.90;2.70;;;;;;;20.38;36.16;96937.69;5046187;28;20504;-68
2022/09/21 09:15:09;;;;;;;2.60;2.50;;;;;;;20.50;35.90;96928.59;5044798;28;20091;-70
2022/09/21 09:17:57;;;;;;;3.25;3.05;;;;;;;20.57;35.37;96915.13;5046409;28;20084;-67
2022/09/21 09:20:35;;;;;;;2.85;2.60;;;;;;;20.27;34.78;96864.00;5046800;28;20103;-67
2022/09/21 09:23:10;;;;;;;3.38;3.17;;;;;;;20.96;34.85;96928.25;5046373;28;20103;-68
2022/09/21 09:25:40;;;;;;;2.50;2.40;;;;;;;18.43;35.27;96619.25;5046666;28;20135;-69
2022/09/21 09:28:32;;;;;;;3.20;3.00;;;;;;;20.38;35.70;96910.38;5045513;28;20555;-67
2022/09/21 09:31:16;;;;;;;2.60;2.50;;;;;;;20.10;36.26;96915.81;5046355;28;20143;-67
2022/09/21 09:33:52;;;;;;;3.83;3.40;;;;;;;20.09;37.87;96914.25;5046528;28;20060;-67
2022/09/21 09:36:19;;;;;;;2.90;2.70;;;;;;;19.77;39.12;96908.50;5046220;28;20081;-69
2022/09/21 09:39:14;;;;;;;2.95;2.40;;;;;;;19.60;39.97;96906.88;5046987;28;20053;-69
2022/09/21 09:42:06;;;;;;;3.53;3.22;;;;;;;19.80;40.06;96913.25;5044954;28;20048;-71
2022/09/21 09:45:01;;;;;;;2.97;2.78;;;;;;;17.65;41.98;96792.81;5044592;28;20095;-72
2022/09/21 09:47:40;;;;;;;2.88;2.30;;;;;;;18.63;41.75;96911.84;5045784;28;20575;-71
2022/09/21 09:50:17;;;;;;;2.95;2.30;;;;;;;18.89;41.10;96913.78;5046070;28;20217;-73
2022/09/21 09:52:45;;;;;;;5.35;4.63;;;;;;;18.39;42.17;96887.78;5044539;28;20515;-71
2022/09/21 09:55:21;;;;;;;3.30;3.10;;;;;;;18.26;41.87;96917.59;5044165;28;20179;-72
2022/09/21 09:57:48;;;;;;;4.10;3.30;;;;;;;17.68;41.65;96926.44;5045880;28;20080;-72
2022/09/21 10:00:18;;;;;;;4.47;3.50;;;;;;;17.25;42.64;96888.91;5046018;28;20076;-72
2022/09/21 10:02:54;;;;;;;5.85;2.90;;;;;;;17.13;42.72;96907.06;5044417;28;20132;-71
2022/09/21 10:05:37;;;;;;;4.03;3.70;;;;;;;17.04;43.83;96897.56;5045350;28;20534;-71
2022/09/21 10:08:03;;;;;;;4.18;3.25;;;;;;;16.94;43.52;96895.66;5044044;28;20163;-72
2022/09/21 10:10:40;;;;;;;11.98;8.05;;;;;;;16.89;43.74;96935.28;5043279;28;20088;-72
2022/09/21 10:13:15;;;;;;;6.68;2.80;;;;;;;16.49;44.28;96817.38;5045787;28;20181;-72
2022/09/21 10:15:51;;;;;;;4.43;2.53;;;;;;;16.15;46.54;96818.47;5045319;28;20527;-71
2022/09/21 10:18:20;;;;;;;2.92;2.72;;;;;;;16.56;49.03;96943.19;5045485;28;20064;-72
2022/09/21 10:20:56;;;;;;;3.50;3.08;;;;;;;16.28;51.18;96951.72;5045168;28;20579;-71
2022/09/21 10:23:25;;;;;;;2.55;2.35;;;;;;;15.89;52.77;96945.56;5044125;28;20136;-72
2022/09/21 10:26:06;;;;;;;4.05;2.78;;;;;;;15.68;53.50;96928.13;5044878;28;20132;-72
2022/09/21 10:28:34;;;;;;;3.28;2.45;;;;;;;15.44;54.64;96876.81;5045532;28;20127;-73
2022/09/21 10:31:20;;;;;;;4.28;2.88;;;;;;;15.38;57.93;96914.69;5044955;28;20118;-72
2022/09/21 10:33:53;;;;;;;10.50;6.03;;;;;;;14.52;63.33;96912.47;5043774;28;20092;-72
2022/09/21 10:36:35;;;;;;;4.47;3.10;;;;;;;14.34;62.88;96961.03;5044776;28;20110;-72
2022/09/21 10:39:24;;;;;;;6.40;2.53;;;;;;;14.33;64.77;96976.16;5044936;28;20299;-73
2022/09/21 10:42:05;;;;;;;3.08;2.22;;;;;;;14.09;67.54;96960.16;5043556;28;20077;-73
2022/09/21 10:44:37;;;;;;;3.33;1.95;;;;;;;13.57;68.25;96962.41;5044697;28;20081;-75
2022/09/21 10:47:32;;;;;;;3.25;2.90;;;;;;;13.60;72.44;96972.75;5048605;28;20573;-71
2022/09/21 10:50:03;;;;;;;4.18;2.97;;;;;;;13.76;73.17;96952.13;5044777;28;20063;-67
2022/09/21 10:52:42;;;;;;;4.55;4.13;;;;;;;13.81;70.16;96951.75;5044864;28;20084;-68
2022/09/21 10:55:22;;;;;;;3.17;2.88;;;;;;;13.95;67.75;96926.72;5044336;28;20512;-68
2022/09/21 10:57:51;;;;;;;2.95;2.20;;;;;;;13.88;63.14;96954.56;5043357;28;20136;-69
2022/09/21 11:00:20;;;;;;;2.60;2.40;;;;;;;14.49;65.76;96943.13;5043015;28;20076;-68
2022/09/21 11:02:47;;;;;;;10.45;5.10;;;;;;;14.30;68.34;96826.50;5046067;28;20487;-65
2022/09/21 11:05:21;;;;;;;4.72;3.58;;;;;;;15.71;68.44;96942.06;5044384;28;20088;-61
2022/09/21 11:08:19;;;;;;;3.35;2.72;;;;;;;15.14;64.23;96887.66;5040287;28;20084;-69
2022/09/21 11:11:15;;;;;;;3.42;3.13;;;;;;;16.50;59.68;96942.00;5037585;28;20650;-65
2022/09/21 11:13:48;;;;;;;3.53;2.45;;;;;;;16.93;58.79;96924.88;5023163;28;20053;-71
2022/09/21 11:16:33;;;;;;;4.18;3.65;;;;;;;17.01;55.27;96836.84;5043452;28;20096;-77
2022/09/21 11:19:18;;;;;;;3.63;3.15;;;;;;;18.32;56.25;96915.13;5054053;28;20048;-69
2022/09/21 11:22:07;;;;;;;25.27;12.18;;;;;;;18.45;51.52;96919.75;5064333;28;20079;-70
2022/09/21 11:24:43;;;;;;;7.25;4.82;;;;;;;18.13;49.16;96836.09;5062820;28;20499;-77
2022/09/21 11:27:17;;;;;;;2.00;1.90;;;;;;;17.52;48.39;96917.81;5064038;28;20455;-73
2022/09/21 11:30:10;;;;;;;2.22;2.13;;;;;;;17.32;48.28;96925.25;5047059;28;20519;-72
2022/09/21 11:32:39;;;;;;;2.93;1.90;;;;;;;17.21;48.48;96927.38;5044372;28;20138;-72
2022/09/21 11:35:18;;;;;;;2.55;2.40;;;;;;;17.61;48.33;96913.31;5044045;28;20107;-69
2022/09/21 11:38:03;;;;;;;2.33;2.20;;;;;;;17.48;48.72;96884.25;5039830;28;20510;-74
2022/09/21 11:40:36;;;;;;;2.80;2.60;;;;;;;17.76;46.89;96905.53;5036216;28;20185;-70
2022/09/21 11:43:24;;;;;;;2.58;2.40;;;;;;;18.36;47.05;96905.44;5044263;28;20052;-74
2022/09/21 11:46:05;;;;;;;3.55;2.17;;;;;;;18.22;45.38;96905.66;5044369;28;20056;-68
2022/09/21 11:48:49;;;;;;;3.65;2.55;;;;;;;17.95;44.56;96857.22;5060894;28;20056;-71
2022/09/21 11:51:42;;;;;;;3.28;2.15;;;;;;;18.80;42.77;96898.72;5063972;28;20145;-76
2022/09/21 11:54:14;;;;;;;4.15;2.00;;;;;;;18.65;42.18;96894.59;5042491;28;20049;-74
2022/09/21 11:57:04;;;;;;;2.60;2.40;;;;;;;18.27;43.63;96745.34;5043883;28;20056;-70
2022/09/21 11:59:33;;;;;;;3.05;2.50;;;;;;;18.95;42.77;96886.81;5033161;28;20128;-66
2022/09/21 12:02:25;;;;;;;1.92;1.83;;;;;;;18.80;40.47;96891.09;5038299;28;20855;-68
2022/09/21 12:04:59;;;;;;;3.17;2.88;;;;;;;16.88;40.01;96547.59;5044051;28;20482;-74
2022/09/21 12:08:05;;;;;;;3.72;3.42;;;;;;;19.22;40.43;96881.88;5031347;28;20132;-69
2022/09/21 12:11:06;;;;;;;2.63;2.45;;;;;;;19.50;39.66;96878.56;5041726;28;20358;-68